createdAt,value
2022-12-31T00:02:30.471Z,82.25
2022-12-31T00:05:04.514Z,81.97
2022-12-31T00:10:11.153Z,82.29
2022-12-31T00:12:44.105Z,81.60
2022-12-31T00:15:17.209Z,82.17
2022-12-31T00:17:50.244Z,81.83
2022-12-31T00:20:23.355Z,81.27
2022-12-31T00:22:57.810Z,81.43
2022-12-31T00:25:30.662Z,82.07
2022-12-31T00:28:03.748Z,81.52
2022-12-31T00:30:37.357Z,81.99
2022-12-31T00:33:10.278Z,81.80
2022-12-31T00:35:43.453Z,81.60
2022-12-31T00:38:18.575Z,82.18
2022-12-31T00:40:51.665Z,81.87
2022-12-31T00:43:27.573Z,81.74
2022-12-31T00:46:01.198Z,81.30
2022-12-31T00:48:34.940Z,81.40
2022-12-31T00:51:10.813Z,81.31
2022-12-31T00:53:45.047Z,81.60
2022-12-31T00:56:20.553Z,81.18
2022-12-31T00:58:54.105Z,81.42
2022-12-31T01:01:29.857Z,81.40
2022-12-31T01:04:05.338Z,81.13
2022-12-31T01:06:39.365Z,81.55
2022-12-31T01:09:16.260Z,81.08
2022-12-31T01:11:51.912Z,81.29
2022-12-31T01:14:24.935Z,80.99
2022-12-31T01:16:57.580Z,81.52
2022-12-31T01:19:30.931Z,81.12
2022-12-31T01:22:04.029Z,81.15
2022-12-31T01:24:38.407Z,81.38
2022-12-31T01:27:14.705Z,80.97
2022-12-31T01:29:48.071Z,80.82
2022-12-31T01:32:21.050Z,80.95
2022-12-31T01:34:54.590Z,81.02
2022-12-31T01:37:27.550Z,81.18
2022-12-31T01:40:02.219Z,81.08
2022-12-31T01:42:35.124Z,80.85
2022-12-31T01:45:12.799Z,81.00
2022-12-31T01:47:48.968Z,81.10
2022-12-31T01:50:26.531Z,80.99
2022-12-31T01:53:02.576Z,80.92
2022-12-31T01:55:41.859Z,80.82
2022-12-31T01:58:19.421Z,80.69
2022-12-31T02:00:54.581Z,80.54
2022-12-31T02:03:29.899Z,80.57
2022-12-31T02:06:09.914Z,80.42
2022-12-31T02:08:43.212Z,80.40
2022-12-31T02:11:27.243Z,80.40
2022-12-31T02:14:04.266Z,80.26
2022-12-31T02:16:45.319Z,80.33
2022-12-31T02:19:42.591Z,80.45
2022-12-31T02:22:28.824Z,80.16
2022-12-31T02:25:38.764Z,80.27
2022-12-31T02:28:26.096Z,80.00
2022-12-31T02:31:05.653Z,80.09
2022-12-31T02:33:42.020Z,80.06
2022-12-31T02:36:20.223Z,80.20
2022-12-31T02:38:53.900Z,79.94
2022-12-31T02:41:44.461Z,80.40
2022-12-31T02:44:25.556Z,80.14
2022-12-31T02:47:14.610Z,80.06
2022-12-31T02:50:02.056Z,80.13
2022-12-31T02:52:42.579Z,80.42
2022-12-31T02:55:21.314Z,80.48
2022-12-31T02:58:03.627Z,80.14
2022-12-31T03:01:01.455Z,80.05
2022-12-31T03:03:37.069Z,80.21
2022-12-31T03:06:12.557Z,79.85
2022-12-31T03:08:59.283Z,80.22
2022-12-31T03:11:49.820Z,80.04
2022-12-31T03:14:22.601Z,80.11
2022-12-31T03:16:55.447Z,80.10
2022-12-31T03:19:46.845Z,80.21
2022-12-31T03:22:28.760Z,80.01
2022-12-31T03:25:21.730Z,79.83
2022-12-31T03:27:56.806Z,79.84
2022-12-31T03:30:30.630Z,79.92
2022-12-31T03:33:05.729Z,79.68
2022-12-31T03:35:41.799Z,80.04
2022-12-31T03:38:15.532Z,80.08
2022-12-31T03:40:50.657Z,79.90
2022-12-31T03:43:24.298Z,80.00
2022-12-31T03:45:59.784Z,79.82
2022-12-31T03:48:33.460Z,79.70
2022-12-31T03:51:07.808Z,80.01
2022-12-31T03:53:40.721Z,79.86
2022-12-31T03:56:13.607Z,79.78
2022-12-31T03:58:47.023Z,79.63
2022-12-31T04:01:20.257Z,80.18
2022-12-31T04:03:53.256Z,80.26
2022-12-31T04:06:28.076Z,80.33
2022-12-31T04:09:00.913Z,80.60
2022-12-31T04:11:33.721Z,80.63
2022-12-31T04:14:06.898Z,80.91
2022-12-31T04:16:40.089Z,81.03
2022-12-31T04:19:14.050Z,81.04
2022-12-31T04:21:48.646Z,81.04
2022-12-31T04:24:21.798Z,80.71
2022-12-31T04:26:54.560Z,80.87
2022-12-31T04:29:30.308Z,80.73
2022-12-31T04:32:03.173Z,80.88
2022-12-31T04:34:36.318Z,80.05
2022-12-31T04:37:10.466Z,80.53
2022-12-31T04:39:43.300Z,80.37
2022-12-31T04:42:16.108Z,80.71
2022-12-31T04:44:48.924Z,81.22
2022-12-31T04:47:23.973Z,80.71
2022-12-31T04:49:57.153Z,80.59
2022-12-31T04:52:34.535Z,80.54
2022-12-31T04:55:10.339Z,80.76
2022-12-31T04:57:43.274Z,81.58
2022-12-31T05:00:16.288Z,81.12
2022-12-31T05:02:49.493Z,80.72
2022-12-31T05:05:22.957Z,81.54
2022-12-31T05:07:57.913Z,81.55
2022-12-31T05:10:31.200Z,81.33
2022-12-31T05:13:04.880Z,81.58
2022-12-31T05:15:37.958Z,81.71
2022-12-31T05:18:11.161Z,82.29
2022-12-31T05:20:44.487Z,81.39
2022-12-31T05:23:19.509Z,81.47
2022-12-31T05:25:52.630Z,81.61
2022-12-31T05:28:25.688Z,81.63
2022-12-31T05:30:58.495Z,81.19
2022-12-31T05:33:31.275Z,81.36
2022-12-31T05:36:04.488Z,81.10
2022-12-31T05:38:39.643Z,81.55
2022-12-31T05:41:12.696Z,81.69
2022-12-31T05:43:45.498Z,81.54
2022-12-31T05:46:20.933Z,81.69
2022-12-31T05:48:53.873Z,81.92
2022-12-31T05:51:26.783Z,81.75
2022-12-31T05:54:01.354Z,82.52
2022-12-31T05:56:34.659Z,81.96
2022-12-31T05:59:07.796Z,82.27
2022-12-31T06:01:40.925Z,82.11
2022-12-31T06:04:13.764Z,82.44
2022-12-31T06:06:46.525Z,82.51
2022-12-31T06:09:20.994Z,82.56
2022-12-31T06:11:53.971Z,82.84
2022-12-31T06:14:26.768Z,83.01
2022-12-31T06:16:59.669Z,82.95
2022-12-31T06:19:32.452Z,83.08
2022-12-31T06:22:05.362Z,83.12
2022-12-31T06:24:39.544Z,83.22
2022-12-31T06:27:12.452Z,82.66
2022-12-31T06:29:45.737Z,82.61
2022-12-31T06:32:18.560Z,83.16
2022-12-31T06:34:51.273Z,83.16
2022-12-31T06:37:24.570Z,83.25
2022-12-31T06:39:58.795Z,84.09
2022-12-31T06:42:32.195Z,83.55
2022-12-31T06:45:05.897Z,83.58
2022-12-31T06:47:38.857Z,83.18
2022-12-31T06:50:11.464Z,83.26
2022-12-31T06:52:44.412Z,83.16
2022-12-31T06:55:19.044Z,83.38
2022-12-31T06:57:52.567Z,83.47
2022-12-31T07:00:25.709Z,83.60
2022-12-31T07:03:25.758Z,83.59
2022-12-31T07:06:03.773Z,83.21
2022-12-31T07:08:46.438Z,83.64
2022-12-31T07:11:24.541Z,83.58
2022-12-31T07:14:08.774Z,83.67
2022-12-31T07:16:56.597Z,83.71
2022-12-31T07:19:39.601Z,83.39
2022-12-31T07:22:15.664Z,83.61
2022-12-31T07:24:49.137Z,83.52
2022-12-31T07:27:36.507Z,83.21
2022-12-31T07:30:15.043Z,83.69
2022-12-31T07:33:22.720Z,83.22
2022-12-31T07:36:04.997Z,83.22
2022-12-31T07:38:46.584Z,83.06
2022-12-31T07:41:29.341Z,83.03
2022-12-31T07:44:09.143Z,83.56
2022-12-31T07:46:51.715Z,83.44
2022-12-31T07:49:27.272Z,83.69
2022-12-31T07:52:00.871Z,83.81
2022-12-31T07:54:33.939Z,83.43
2022-12-31T07:57:10.119Z,83.66
2022-12-31T07:59:59.825Z,83.47
2022-12-31T08:02:58.552Z,83.22
2022-12-31T08:05:40.543Z,83.42
2022-12-31T08:08:25.062Z,83.82
2022-12-31T08:11:09.478Z,83.61
2022-12-31T08:13:43.994Z,83.34
2022-12-31T08:16:20.256Z,83.71
2022-12-31T08:18:53.885Z,83.34
2022-12-31T08:21:39.428Z,83.02
2022-12-31T08:24:23.588Z,83.27
2022-12-31T08:27:10.118Z,83.00
2022-12-31T08:30:02.500Z,83.00
2022-12-31T08:32:53.028Z,83.58
2022-12-31T08:35:30.744Z,83.47
2022-12-31T08:38:16.477Z,83.19
2022-12-31T08:40:56.062Z,83.91
2022-12-31T08:43:44.730Z,83.52
2022-12-31T08:46:24.389Z,83.55
2022-12-31T08:48:59.087Z,83.40
2022-12-31T08:51:34.042Z,83.48
2022-12-31T08:54:11.211Z,83.51
2022-12-31T08:56:50.893Z,83.59
2022-12-31T08:59:36.163Z,83.81
2022-12-31T09:02:47.769Z,83.35
2022-12-31T09:05:26.600Z,83.43
2022-12-31T09:08:07.782Z,83.61
2022-12-31T09:10:47.226Z,83.74
2022-12-31T09:13:30.243Z,83.45
2022-12-31T09:16:10.286Z,83.67
2022-12-31T09:18:43.956Z,83.32
2022-12-31T09:21:18.557Z,83.05
2022-12-31T09:23:51.949Z,83.25
2022-12-31T09:26:38.690Z,83.38
2022-12-31T09:29:26.508Z,83.05
2022-12-31T09:32:06.780Z,83.40
2022-12-31T09:34:47.807Z,83.29
2022-12-31T09:37:37.624Z,83.50
2022-12-31T09:40:39.991Z,84.00
2022-12-31T09:43:53.419Z,83.84
2022-12-31T09:46:58.450Z,84.24
2022-12-31T09:50:13.845Z,84.19
2022-12-31T09:53:10.264Z,83.73
2022-12-31T09:55:52.534Z,83.48
2022-12-31T09:58:43.207Z,83.76
2022-12-31T10:01:39.280Z,83.79
2022-12-31T10:04:40.862Z,84.12
2022-12-31T10:07:30.005Z,84.12
2022-12-31T10:10:10.502Z,84.57
2022-12-31T10:13:03.182Z,84.32
2022-12-31T10:16:30.122Z,84.22
2022-12-31T10:19:36.088Z,84.02
2022-12-31T10:22:24.198Z,84.63
2022-12-31T10:25:19.319Z,84.82
2022-12-31T10:27:56.165Z,85.07
2022-12-31T10:30:34.740Z,84.55
2022-12-31T10:33:16.720Z,85.27
2022-12-31T10:36:00.320Z,85.71
2022-12-31T10:38:52.268Z,85.94
2022-12-31T10:41:53.651Z,85.90
2022-12-31T10:44:49.044Z,84.95
2022-12-31T10:47:48.522Z,85.55
2022-12-31T10:50:42.521Z,85.39
2022-12-31T10:53:42.030Z,85.72
2022-12-31T10:56:40.260Z,85.63
2022-12-31T10:59:36.638Z,85.08
2022-12-31T11:02:32.997Z,85.13
2022-12-31T11:05:38.408Z,84.88
2022-12-31T11:08:34.164Z,85.30
2022-12-31T11:11:24.070Z,84.91
2022-12-31T11:14:27.410Z,84.95
2022-12-31T11:17:26.635Z,84.86
2022-12-31T11:20:11.911Z,84.93
2022-12-31T11:23:02.323Z,85.01
2022-12-31T11:25:48.855Z,85.19
2022-12-31T11:28:40.086Z,85.21
2022-12-31T11:31:29.346Z,84.85
2022-12-31T11:34:16.125Z,85.18
2022-12-31T11:37:14.721Z,85.31
2022-12-31T11:39:56.227Z,85.33
2022-12-31T11:42:42.627Z,85.48
2022-12-31T11:45:24.833Z,85.21
2022-12-31T11:51:11.495Z,85.63
2022-12-31T11:54:05.043Z,85.30
2022-12-31T11:56:40.067Z,85.69
2022-12-31T11:59:19.329Z,85.52
2022-12-31T12:01:57.224Z,85.76
2022-12-31T12:04:31.987Z,85.68
2022-12-31T12:07:09.787Z,85.66
2022-12-31T12:09:44.831Z,86.04
2022-12-31T12:12:17.764Z,85.98
2022-12-31T12:14:54.393Z,85.58
2022-12-31T12:17:32.340Z,85.35
2022-12-31T12:20:17.421Z,85.21
2022-12-31T12:22:51.993Z,85.05
2022-12-31T12:25:26.984Z,84.90
2022-12-31T12:27:59.825Z,84.85
2022-12-31T12:30:41.283Z,84.93
2022-12-31T12:33:19.121Z,86.01
2022-12-31T12:35:53.564Z,85.27
2022-12-31T12:38:26.387Z,85.73
2022-12-31T12:41:00.248Z,85.62
2022-12-31T12:43:35.040Z,85.60
2022-12-31T12:46:19.219Z,85.46
2022-12-31T12:48:56.673Z,85.41
2022-12-31T12:51:44.223Z,85.48
2022-12-31T12:54:31.265Z,85.62
2022-12-31T12:57:10.441Z,85.34
2022-12-31T12:59:57.167Z,85.56
2022-12-31T13:03:02.628Z,85.86
2022-12-31T13:05:47.930Z,85.59
2022-12-31T13:08:34.454Z,85.48
2022-12-31T13:11:26.250Z,85.68
2022-12-31T13:14:04.915Z,85.22
2022-12-31T13:16:42.834Z,85.45
2022-12-31T13:19:23.672Z,85.50
2022-12-31T13:22:03.238Z,85.53
2022-12-31T13:24:52.068Z,85.32
2022-12-31T13:27:29.651Z,85.29
2022-12-31T13:30:07.259Z,85.40
2022-12-31T13:32:44.383Z,85.48
2022-12-31T13:35:31.033Z,85.55
2022-12-31T13:38:18.438Z,85.01
2022-12-31T13:41:11.335Z,85.12
2022-12-31T13:44:04.686Z,85.57
2022-12-31T13:47:46.556Z,85.05
2022-12-31T13:50:25.933Z,84.86
2022-12-31T13:53:05.319Z,84.73
2022-12-31T13:55:42.694Z,84.74
2022-12-31T13:58:24.085Z,84.74
2022-12-31T14:01:06.401Z,84.81
2022-12-31T14:03:46.961Z,84.70
2022-12-31T14:06:30.060Z,84.92
2022-12-31T14:09:03.479Z,84.72
2022-12-31T14:12:04.696Z,84.18
2022-12-31T14:14:47.508Z,84.49
2022-12-31T14:17:29.539Z,84.33
2022-12-31T14:20:13.154Z,84.37
2022-12-31T14:22:52.826Z,84.55
2022-12-31T14:25:32.081Z,84.25
2022-12-31T14:28:08.323Z,84.23
2022-12-31T14:30:45.725Z,84.52
2022-12-31T14:33:32.433Z,84.31
2022-12-31T14:36:15.960Z,84.14
2022-12-31T14:39:07.420Z,84.13
2022-12-31T14:41:52.673Z,83.76
2022-12-31T14:44:39.322Z,83.91
2022-12-31T14:47:28.212Z,83.92
2022-12-31T14:50:08.100Z,83.95
2022-12-31T14:52:53.288Z,84.05
2022-12-31T14:55:29.632Z,84.06
2022-12-31T15:01:00.046Z,84.43
2022-12-31T15:03:45.499Z,84.43
2022-12-31T15:06:50.526Z,84.13
2022-12-31T15:09:57.947Z,84.12
2022-12-31T15:13:04.483Z,84.13
2022-12-31T15:15:50.347Z,84.28
2022-12-31T15:18:36.194Z,84.61
2022-12-31T15:21:26.578Z,84.32
2022-12-31T15:23:59.651Z,84.27
2022-12-31T15:26:34.742Z,84.26
2022-12-31T15:29:20.679Z,84.07
2022-12-31T15:31:57.460Z,84.17
2022-12-31T15:34:34.189Z,83.77
2022-12-31T15:37:33.801Z,84.16
2022-12-31T15:40:19.634Z,83.84
2022-12-31T15:42:59.204Z,83.79
2022-12-31T15:45:35.257Z,83.56
2022-12-31T15:48:15.216Z,83.85
2022-12-31T15:50:52.427Z,83.89
2022-12-31T15:53:31.014Z,83.39
2022-12-31T15:56:04.746Z,83.74
2022-12-31T15:58:38.602Z,83.23
2022-12-31T16:01:16.138Z,82.86
2022-12-31T16:03:55.938Z,83.02
2022-12-31T16:06:32.466Z,83.04
2022-12-31T16:09:09.547Z,83.33
2022-12-31T16:11:44.462Z,83.03
2022-12-31T16:14:23.315Z,83.45
2022-12-31T16:16:58.619Z,83.11
2022-12-31T16:19:34.747Z,82.66
2022-12-31T16:22:16.651Z,83.05
2022-12-31T16:25:28.942Z,82.64
2022-12-31T16:27:51.002Z,82.37
2022-12-31T16:30:28.695Z,82.28
2022-12-31T16:33:04.204Z,82.38
2022-12-31T16:35:38.477Z,82.09
2022-12-31T16:38:15.743Z,82.21
2022-12-31T16:41:19.051Z,82.21
2022-12-31T16:43:53.150Z,82.22
2022-12-31T16:46:30.489Z,82.04
2022-12-31T16:49:14.606Z,81.96
2022-12-31T16:51:49.810Z,82.16
2022-12-31T16:54:31.017Z,81.61
2022-12-31T16:57:10.951Z,81.84
2022-12-31T16:59:46.985Z,81.80
2022-12-31T17:02:32.457Z,81.62
2022-12-31T17:05:06.624Z,81.26
2022-12-31T17:07:43.198Z,81.97
2022-12-31T17:10:21.580Z,81.48
2022-12-31T17:13:28.111Z,80.66
2022-12-31T17:15:53.114Z,80.68
2022-12-31T17:18:30.327Z,80.34
2022-12-31T17:21:08.921Z,80.32
2022-12-31T17:23:43.031Z,80.69
2022-12-31T17:26:25.040Z,80.07
2022-12-31T17:29:01.623Z,80.49
2022-12-31T17:31:39.824Z,80.03
2022-12-31T17:34:30.460Z,80.10
2022-12-31T17:37:18.325Z,79.64
2022-12-31T17:39:52.508Z,79.51
2022-12-31T17:42:34.152Z,79.83
2022-12-31T17:45:19.103Z,79.65
2022-12-31T17:47:55.714Z,79.90
2022-12-31T17:50:29.341Z,79.29
2022-12-31T17:53:12.288Z,79.09
2022-12-31T17:55:48.207Z,79.19
2022-12-31T17:58:29.618Z,78.96
2022-12-31T18:01:08.120Z,78.72
2022-12-31T18:03:41.152Z,78.63
2022-12-31T18:06:16.906Z,78.53
2022-12-31T18:08:50.052Z,78.59
2022-12-31T18:11:25.247Z,79.24
2022-12-31T18:13:58.176Z,77.70
2022-12-31T18:16:32.286Z,78.32
2022-12-31T18:19:23.621Z,77.78
2022-12-31T18:22:06.763Z,78.53
2022-12-31T18:24:39.962Z,77.86
2022-12-31T18:27:16.433Z,77.86
2022-12-31T18:29:49.752Z,77.29
2022-12-31T18:32:25.895Z,77.60
2022-12-31T18:34:59.271Z,77.28
2022-12-31T18:37:34.531Z,76.56
2022-12-31T18:40:08.528Z,77.14
2022-12-31T18:42:42.105Z,76.79
2022-12-31T18:45:17.903Z,76.55
2022-12-31T18:47:52.209Z,76.42
2022-12-31T18:50:24.985Z,75.46
2022-12-31T18:52:57.915Z,76.07
2022-12-31T18:55:38.820Z,75.85
2022-12-31T18:58:12.199Z,75.85
2022-12-31T19:00:46.229Z,75.68
2022-12-31T19:03:22.700Z,76.17
2022-12-31T19:05:55.617Z,75.63
2022-12-31T19:08:28.525Z,75.45
2022-12-31T19:11:02.217Z,75.70
2022-12-31T19:13:34.918Z,76.40
2022-12-31T19:16:08.847Z,75.43
2022-12-31T19:18:43.678Z,75.46
2022-12-31T19:21:18.578Z,76.36
2022-12-31T19:23:53.058Z,75.89
2022-12-31T19:26:43.536Z,75.68
2022-12-31T19:29:21.369Z,76.42
2022-12-31T19:32:01.275Z,76.11
2022-12-31T19:34:35.972Z,77.51
2022-12-31T19:37:13.377Z,76.41
2022-12-31T19:39:46.750Z,77.17
2022-12-31T19:42:21.531Z,78.11
2022-12-31T19:44:57.310Z,76.64
2022-12-31T19:47:30.403Z,76.13
2022-12-31T19:50:05.604Z,75.74
2022-12-31T19:52:38.803Z,75.29
2022-12-31T19:55:15.155Z,75.42
2022-12-31T19:57:49.024Z,76.55
2022-12-31T20:00:22.940Z,75.36
2022-12-31T20:02:56.390Z,76.41
2022-12-31T20:05:31.385Z,76.10
2022-12-31T20:08:14.494Z,75.61
2022-12-31T20:10:47.840Z,75.92
2022-12-31T20:13:21.346Z,75.37
2022-12-31T20:15:54.737Z,75.53
2022-12-31T20:18:27.998Z,75.70
2022-12-31T20:21:04.902Z,74.98
2022-12-31T20:23:37.877Z,75.37
2022-12-31T20:26:13.029Z,74.88
2022-12-31T20:28:46.769Z,75.08
2022-12-31T20:31:22.053Z,75.42
2022-12-31T20:33:56.121Z,75.22
2022-12-31T20:36:30.583Z,76.10
2022-12-31T20:39:03.747Z,75.34
2022-12-31T20:41:36.926Z,75.06
2022-12-31T20:44:10.168Z,75.40
2022-12-31T20:46:45.151Z,75.40
2022-12-31T20:49:31.344Z,75.33
2022-12-31T20:52:15.385Z,74.79
2022-12-31T20:54:48.451Z,75.18
2022-12-31T20:57:21.331Z,75.10
2022-12-31T20:59:54.205Z,74.85
2022-12-31T21:02:40.822Z,75.79
2022-12-31T21:05:14.406Z,75.11
2022-12-31T21:07:48.963Z,75.39
2022-12-31T21:10:21.928Z,75.08
2022-12-31T21:12:53.714Z,74.58
2022-12-31T21:15:26.699Z,74.83
2022-12-31T21:18:00.230Z,73.89
2022-12-31T21:20:33.075Z,74.65
2022-12-31T21:23:07.477Z,74.60
2022-12-31T21:25:40.418Z,74.14
2022-12-31T21:28:13.610Z,73.96
2022-12-31T21:30:46.644Z,74.63
2022-12-31T21:33:19.610Z,74.21
2022-12-31T21:35:54.016Z,74.40
2022-12-31T21:38:30.423Z,74.69
2022-12-31T21:41:03.617Z,74.27
2022-12-31T21:43:36.506Z,74.03
2022-12-31T21:46:09.311Z,74.04
2022-12-31T21:48:42.221Z,73.68
2022-12-31T21:51:17.212Z,74.55
2022-12-31T21:53:52.052Z,74.31
2022-12-31T21:56:24.111Z,74.31
2022-12-31T21:59:16.103Z,74.58
2022-12-31T22:02:06.691Z,74.57
2022-12-31T22:07:32.598Z,74.66
2022-12-31T22:10:07.867Z,74.06
2022-12-31T22:12:40.899Z,74.09
2022-12-31T22:15:16.252Z,73.72
2022-12-31T22:17:49.497Z,73.65
2022-12-31T22:20:27.526Z,73.29
2022-12-31T22:23:01.045Z,73.77
2022-12-31T22:25:35.885Z,74.07
2022-12-31T22:28:37.557Z,73.59
2022-12-31T22:31:02.140Z,74.14
2022-12-31T22:33:34.991Z,73.36
2022-12-31T22:36:11.737Z,74.27
2022-12-31T22:38:45.423Z,74.04
2022-12-31T22:41:22.040Z,73.54
2022-12-31T22:44:02.989Z,74.08
2022-12-31T22:46:36.888Z,73.43
2022-12-31T22:49:11.875Z,73.96
2022-12-31T22:51:57.135Z,73.74
2022-12-31T22:54:31.802Z,73.22
2022-12-31T22:57:06.047Z,73.15
2022-12-31T22:59:39.159Z,74.01
2022-12-31T23:02:12.953Z,73.72
2022-12-31T23:04:46.107Z,73.68
2022-12-31T23:07:19.087Z,73.71
2022-12-31T23:10:09.495Z,73.58
2022-12-31T23:12:44.224Z,73.81
2022-12-31T23:15:34.877Z,73.61
2022-12-31T23:18:25.734Z,73.68
2022-12-31T23:21:15.972Z,73.83
2022-12-31T23:23:48.849Z,73.82
2022-12-31T23:26:21.592Z,73.80
2022-12-31T23:28:55.751Z,73.77
2022-12-31T23:31:28.892Z,75.04
2022-12-31T23:34:01.700Z,74.03
2022-12-31T23:36:34.708Z,73.89
2022-12-31T23:39:07.787Z,73.67
2022-12-31T23:41:40.454Z,73.71
2022-12-31T23:44:15.224Z,73.67
2022-12-31T23:46:48.315Z,74.25
2022-12-31T23:49:21.609Z,73.75
2022-12-31T23:51:54.379Z,73.63
2022-12-31T23:54:27.140Z,74.22
2022-12-31T23:56:59.993Z,74.13
2022-12-31T23:59:34.270Z,74.04
